createdAt,value
2019-03-27T00:00:57.983Z,6.17
2019-03-27T00:03:26.464Z,6.17
2019-03-27T00:05:54.903Z,6.16
2019-03-27T00:08:23.349Z,6.17
2019-03-27T00:10:51.860Z,6.18
2019-03-27T00:13:20.362Z,6.20
2019-03-27T00:15:48.826Z,6.18
2019-03-27T00:18:17.334Z,6.18
2019-03-27T00:20:45.841Z,6.18
2019-03-27T00:23:15.684Z,6.18
2019-03-27T00:25:44.279Z,6.17
2019-03-27T00:28:13.604Z,6.17
2019-03-27T00:30:42.028Z,6.17
2019-03-27T00:33:10.487Z,6.14
2019-03-27T00:35:38.764Z,6.12
2019-03-27T00:38:07.253Z,6.10
2019-03-27T00:40:35.739Z,6.10
2019-03-27T00:43:04.156Z,6.07
2019-03-27T00:45:32.813Z,6.07
2019-03-27T00:48:09.381Z,6.07
2019-03-27T00:50:39.103Z,6.06
2019-03-27T00:53:07.723Z,6.05
2019-03-27T00:55:36.277Z,6.04
2019-03-27T00:58:04.798Z,6.03
2019-03-27T01:01:04.420Z,6.03
2019-03-27T01:03:32.999Z,6.01
2019-03-27T01:06:01.523Z,6.02
2019-03-27T01:08:29.904Z,6.00
2019-03-27T01:10:58.346Z,6.00
2019-03-27T01:13:26.749Z,5.99
2019-03-27T01:15:55.369Z,5.96
2019-03-27T01:18:24.495Z,5.95
2019-03-27T01:20:52.942Z,5.94
2019-03-27T01:23:21.291Z,5.91
2019-03-27T01:25:50.505Z,5.89
2019-03-27T01:28:18.870Z,5.85
2019-03-27T01:30:47.262Z,5.85
2019-03-27T01:33:15.690Z,5.77
2019-03-27T01:35:44.174Z,5.75
2019-03-27T01:38:12.484Z,5.73
2019-03-27T01:40:40.827Z,5.71
2019-03-27T01:43:09.220Z,5.67
2019-03-27T01:45:37.794Z,5.63
2019-03-27T01:48:06.208Z,5.61
2019-03-27T01:50:42.611Z,5.58
2019-03-27T01:53:10.982Z,5.57
2019-03-27T01:55:39.470Z,5.56
2019-03-27T01:58:07.760Z,5.53
2019-03-27T02:00:36.260Z,5.51
2019-03-27T02:03:05.450Z,5.50
2019-03-27T02:05:34.021Z,5.47
2019-03-27T02:08:02.443Z,5.46
2019-03-27T02:10:31.022Z,5.42
2019-03-27T02:12:59.412Z,5.37
2019-03-27T02:15:29.756Z,5.34
2019-03-27T02:17:58.183Z,5.32
2019-03-27T02:20:26.551Z,5.32
2019-03-27T02:22:55.046Z,5.30
2019-03-27T02:25:23.531Z,5.28
2019-03-27T02:27:51.850Z,5.25
2019-03-27T02:30:20.310Z,5.23
2019-03-27T02:32:48.811Z,5.19
2019-03-27T02:35:17.175Z,5.14
2019-03-27T02:37:45.979Z,5.12
2019-03-27T02:40:14.490Z,5.09
2019-03-27T02:42:42.947Z,5.06
2019-03-27T02:45:13.251Z,5.02
2019-03-27T02:47:41.621Z,5.00
2019-03-27T02:50:10.072Z,4.99
2019-03-27T02:52:40.991Z,4.98
2019-03-27T02:55:09.649Z,4.96
2019-03-27T02:57:37.977Z,4.94
2019-03-27T03:00:08.049Z,4.95
2019-03-27T03:02:36.424Z,4.94
2019-03-27T03:05:06.141Z,4.90
2019-03-27T03:07:34.475Z,4.88
2019-03-27T03:10:03.048Z,4.87
2019-03-27T03:12:31.363Z,4.83
2019-03-27T03:14:59.727Z,4.79
2019-03-27T03:17:28.321Z,4.76
2019-03-27T03:19:56.622Z,4.73
2019-03-27T03:22:25.103Z,4.70
2019-03-27T03:24:53.581Z,4.68
2019-03-27T03:27:22.059Z,4.65
2019-03-27T03:29:50.545Z,4.62
2019-03-27T03:32:19.034Z,4.60
2019-03-27T03:34:47.450Z,4.57
2019-03-27T03:37:15.926Z,4.53
2019-03-27T03:39:44.310Z,4.47
2019-03-27T03:42:12.985Z,4.45
2019-03-27T03:44:41.314Z,4.42
2019-03-27T03:47:09.766Z,4.39
2019-03-27T03:49:38.179Z,4.39
2019-03-27T03:52:06.800Z,4.37
2019-03-27T03:54:35.814Z,4.37
2019-03-27T03:57:04.494Z,4.33
2019-03-27T03:59:35.298Z,4.30
2019-03-27T04:02:04.090Z,4.27
2019-03-27T04:04:34.989Z,4.24
2019-03-27T04:07:03.420Z,4.21
2019-03-27T04:09:32.415Z,4.15
2019-03-27T04:12:01.001Z,4.11
2019-03-27T04:14:29.433Z,4.08
2019-03-27T04:16:57.801Z,4.05
2019-03-27T04:19:26.228Z,4.04
2019-03-27T04:21:54.590Z,4.01
2019-03-27T04:24:23.891Z,3.99
2019-03-27T04:26:52.362Z,3.95
2019-03-27T04:29:21.603Z,3.91
2019-03-27T04:31:49.984Z,3.90
2019-03-27T04:34:18.280Z,3.88
2019-03-27T04:36:47.056Z,3.87
2019-03-27T04:39:15.460Z,3.84
2019-03-27T04:41:44.032Z,3.83
2019-03-27T04:44:13.132Z,3.81
2019-03-27T04:46:43.295Z,3.78
2019-03-27T04:49:11.819Z,3.77
2019-03-27T04:51:40.298Z,3.76
2019-03-27T04:54:09.106Z,3.79
2019-03-27T04:56:37.649Z,3.75
2019-03-27T04:59:05.929Z,3.73
2019-03-27T05:01:35.158Z,3.67
2019-03-27T05:04:04.915Z,3.60
2019-03-27T05:06:35.017Z,3.58
2019-03-27T05:09:04.417Z,3.55
2019-03-27T05:11:32.921Z,3.49
2019-03-27T05:14:02.692Z,3.64
2019-03-27T05:16:31.098Z,3.74
2019-03-27T05:18:59.458Z,3.62
2019-03-27T05:21:27.973Z,3.58
2019-03-27T05:23:56.411Z,3.58
2019-03-27T05:26:24.838Z,3.64
2019-03-27T05:28:59.998Z,3.64
2019-03-27T05:31:28.383Z,3.69
2019-03-27T05:33:56.944Z,3.69
2019-03-27T05:36:25.347Z,3.63
2019-03-27T05:38:54.612Z,3.62
2019-03-27T05:41:22.927Z,3.67
2019-03-27T05:43:52.317Z,3.71
2019-03-27T05:46:20.737Z,3.72
2019-03-27T05:48:49.202Z,3.74
2019-03-27T05:51:17.519Z,3.77
2019-03-27T05:53:46.387Z,3.77
2019-03-27T05:56:14.683Z,3.78
2019-03-27T05:58:43.333Z,3.83
2019-03-27T06:01:11.624Z,3.91
2019-03-27T06:03:40.092Z,3.95
2019-03-27T06:06:08.596Z,3.94
2019-03-27T06:08:37.077Z,3.94
2019-03-27T06:11:05.785Z,3.97
2019-03-27T06:13:34.260Z,4.04
2019-03-27T06:16:03.629Z,4.05
2019-03-27T06:18:32.124Z,4.07
2019-03-27T06:21:00.403Z,4.15
2019-03-27T06:23:28.791Z,4.19
2019-03-27T06:25:57.196Z,4.20
2019-03-27T06:28:26.128Z,4.28
2019-03-27T06:30:54.564Z,4.32
2019-03-27T06:33:22.941Z,4.35
2019-03-27T06:35:51.370Z,4.37
2019-03-27T06:38:19.826Z,4.41
2019-03-27T06:40:48.270Z,4.48
2019-03-27T06:43:16.928Z,4.54
2019-03-27T06:45:48.633Z,4.63
2019-03-27T06:48:26.213Z,4.69
2019-03-27T06:50:51.162Z,4.80
2019-03-27T06:53:20.318Z,4.83
2019-03-27T06:55:49.695Z,4.88
2019-03-27T06:58:18.176Z,4.93
2019-03-27T07:00:46.791Z,5.00
2019-03-27T07:03:15.170Z,5.06
2019-03-27T07:05:43.686Z,5.14
2019-03-27T07:08:11.967Z,5.19
2019-03-27T07:10:40.331Z,5.25
2019-03-27T07:13:08.709Z,5.30
2019-03-27T07:15:37.159Z,5.34
2019-03-27T07:18:05.567Z,5.39
2019-03-27T07:20:34.023Z,5.49
2019-03-27T07:23:02.449Z,5.60
2019-03-27T07:25:30.827Z,5.67
2019-03-27T07:27:59.214Z,5.75
2019-03-27T07:30:27.752Z,5.81
2019-03-27T07:33:02.703Z,5.89
2019-03-27T07:35:31.160Z,5.97
2019-03-27T07:37:59.553Z,6.04
2019-03-27T07:40:28.134Z,6.12
2019-03-27T07:42:56.464Z,6.18
2019-03-27T07:45:25.000Z,6.30
2019-03-27T07:47:53.300Z,6.46
2019-03-27T07:50:22.378Z,6.53
2019-03-27T07:52:50.718Z,6.58
2019-03-27T07:55:20.098Z,6.64
2019-03-27T07:57:48.518Z,6.71
2019-03-27T08:00:17.644Z,6.77
2019-03-27T08:02:45.953Z,6.89
2019-03-27T08:05:14.513Z,7.00
2019-03-27T08:07:43.027Z,7.11
2019-03-27T08:10:11.908Z,7.19
2019-03-27T08:12:41.173Z,7.28
2019-03-27T08:15:10.213Z,7.33
2019-03-27T08:17:38.863Z,7.39
2019-03-27T08:20:07.805Z,7.46
2019-03-27T08:22:36.243Z,7.52
2019-03-27T08:25:05.443Z,7.63
2019-03-27T08:27:33.868Z,7.78
2019-03-27T08:30:02.601Z,7.82
2019-03-27T08:32:31.096Z,7.79
2019-03-27T08:35:11.610Z,7.92
2019-03-27T08:37:40.031Z,7.92
2019-03-27T08:40:10.375Z,8.00
2019-03-27T08:42:39.020Z,8.06
2019-03-27T08:45:08.545Z,8.20
2019-03-27T08:47:37.090Z,8.28
2019-03-27T08:50:06.103Z,8.37
2019-03-27T08:52:34.545Z,8.47
2019-03-27T08:55:03.255Z,8.19
2019-03-27T08:57:31.745Z,8.32
2019-03-27T09:00:00.373Z,8.47
2019-03-27T09:02:30.535Z,8.57
2019-03-27T09:04:58.989Z,8.72
2019-03-27T09:07:27.553Z,8.82
2019-03-27T09:09:56.044Z,8.90
2019-03-27T09:12:24.758Z,9.03
2019-03-27T09:14:53.287Z,9.09
2019-03-27T09:17:21.945Z,9.13
2019-03-27T09:19:50.419Z,9.06
2019-03-27T09:22:18.847Z,8.88
2019-03-27T09:24:47.289Z,9.00
2019-03-27T09:27:15.753Z,9.19
2019-03-27T09:29:44.115Z,9.38
2019-03-27T09:32:12.785Z,9.45
2019-03-27T09:34:41.319Z,9.57
2019-03-27T09:37:21.848Z,9.74
2019-03-27T09:39:50.193Z,9.42
2019-03-27T09:42:18.620Z,9.46
2019-03-27T09:44:47.070Z,9.75
2019-03-27T09:47:15.577Z,9.52
2019-03-27T09:49:49.775Z,9.62
2019-03-27T09:52:14.275Z,9.57
2019-03-27T09:54:42.784Z,9.66
2019-03-27T09:57:11.213Z,9.79
2019-03-27T09:59:39.696Z,9.93
2019-03-27T10:02:08.268Z,10.08
2019-03-27T10:04:36.837Z,10.27
2019-03-27T10:07:05.449Z,10.23
2019-03-27T10:09:34.086Z,10.53
2019-03-27T10:12:02.649Z,10.72
2019-03-27T10:14:31.181Z,10.53
2019-03-27T10:16:59.823Z,10.41
2019-03-27T10:19:28.257Z,10.31
2019-03-27T10:21:56.749Z,10.35
2019-03-27T10:24:25.284Z,10.44
2019-03-27T10:26:53.879Z,10.52
2019-03-27T10:29:22.436Z,10.70
2019-03-27T10:31:51.102Z,10.79
2019-03-27T10:34:19.543Z,10.63
2019-03-27T10:36:48.191Z,10.36
2019-03-27T10:39:18.783Z,10.23
2019-03-27T10:41:47.652Z,10.15
2019-03-27T10:44:17.997Z,10.49
2019-03-27T10:46:46.499Z,10.75
2019-03-27T10:49:14.906Z,11.02
2019-03-27T10:51:43.310Z,11.00
2019-03-27T10:54:12.734Z,10.91
2019-03-27T10:56:41.330Z,10.88
2019-03-27T10:59:09.719Z,11.01
2019-03-27T11:01:38.218Z,11.66
2019-03-27T11:04:06.812Z,11.94
2019-03-27T11:06:35.141Z,12.02
2019-03-27T11:09:07.012Z,12.33
2019-03-27T11:11:35.880Z,12.35
2019-03-27T11:14:04.959Z,12.39
2019-03-27T11:16:33.519Z,12.51
2019-03-27T11:19:02.181Z,12.51
2019-03-27T11:21:30.614Z,12.75
2019-03-27T11:23:59.080Z,13.13
2019-03-27T11:26:27.552Z,13.58
2019-03-27T11:28:56.771Z,13.56
2019-03-27T11:31:25.269Z,13.60
2019-03-27T11:33:54.296Z,13.55
2019-03-27T11:36:23.425Z,13.48
2019-03-27T11:38:51.966Z,13.63
2019-03-27T11:41:20.490Z,13.98
2019-03-27T11:43:54.814Z,14.30
2019-03-27T11:46:19.281Z,14.36
2019-03-27T11:48:47.676Z,14.53
2019-03-27T11:51:16.243Z,14.55
2019-03-27T11:53:45.048Z,14.60
2019-03-27T11:56:13.488Z,14.60
2019-03-27T11:58:42.255Z,14.53
2019-03-27T12:01:10.542Z,14.22
2019-03-27T12:03:38.920Z,14.23
2019-03-27T12:06:07.432Z,13.77
2019-03-27T12:08:35.802Z,13.77
2019-03-27T12:11:05.422Z,13.55
2019-03-27T12:13:33.900Z,13.55
2019-03-27T12:16:02.430Z,13.49
2019-03-27T12:18:32.254Z,13.06
2019-03-27T12:21:01.115Z,13.06
2019-03-27T12:23:29.577Z,13.28
2019-03-27T12:25:58.135Z,13.74
2019-03-27T12:28:26.604Z,14.09
2019-03-27T12:30:55.089Z,14.30
2019-03-27T12:33:23.645Z,14.30
2019-03-27T12:35:52.050Z,14.29
2019-03-27T12:38:20.473Z,14.31
2019-03-27T12:40:48.803Z,14.26
2019-03-27T12:43:17.410Z,14.26
2019-03-27T12:45:45.892Z,13.92
2019-03-27T12:48:14.418Z,13.92
2019-03-27T12:50:44.556Z,14.22
2019-03-27T12:53:13.082Z,14.33
2019-03-27T12:55:41.632Z,14.33
2019-03-27T12:58:11.877Z,14.60
2019-03-27T13:00:41.292Z,14.33
2019-03-27T13:03:09.839Z,14.06
2019-03-27T13:05:38.286Z,13.30
2019-03-27T13:08:06.798Z,13.55
2019-03-27T13:10:35.392Z,13.55
2019-03-27T13:13:03.911Z,13.99
2019-03-27T13:15:33.596Z,14.40
2019-03-27T13:18:02.271Z,14.49
2019-03-27T13:20:30.792Z,14.48
2019-03-27T13:22:59.260Z,14.57
2019-03-27T13:25:28.469Z,14.57
2019-03-27T13:27:56.810Z,14.69
2019-03-27T13:30:25.300Z,14.69
2019-03-27T13:32:53.689Z,14.77
2019-03-27T13:35:22.874Z,14.51
2019-03-27T13:37:51.333Z,13.92
2019-03-27T13:40:20.153Z,13.92
2019-03-27T13:42:49.042Z,14.43
2019-03-27T13:45:18.023Z,14.43
2019-03-27T13:47:46.570Z,14.24
2019-03-27T13:50:17.411Z,14.53
2019-03-27T13:52:45.763Z,14.65
2019-03-27T13:55:14.468Z,14.64
2019-03-27T13:57:43.423Z,14.64
2019-03-27T14:00:13.714Z,14.75
2019-03-27T14:02:42.509Z,15.00
2019-03-27T14:05:11.785Z,15.00
2019-03-27T14:07:40.324Z,15.01
2019-03-27T14:10:09.301Z,15.16
2019-03-27T14:12:37.864Z,15.09
2019-03-27T14:15:07.808Z,14.98
2019-03-27T14:17:42.687Z,14.97
2019-03-27T14:20:11.709Z,15.03
2019-03-27T14:22:40.259Z,15.07
2019-03-27T14:25:10.949Z,14.46
2019-03-27T14:27:39.357Z,14.61
2019-03-27T14:30:09.245Z,14.83
2019-03-27T14:32:37.841Z,15.04
2019-03-27T14:35:06.540Z,14.80
2019-03-27T14:37:35.112Z,14.67
2019-03-27T14:40:04.334Z,14.33
2019-03-27T14:42:32.745Z,14.01
2019-03-27T14:45:01.348Z,13.93
2019-03-27T14:47:29.863Z,13.83
2019-03-27T14:49:58.252Z,13.47
2019-03-27T14:52:26.649Z,13.47
2019-03-27T14:54:55.148Z,13.14
2019-03-27T14:57:23.482Z,13.06
2019-03-27T14:59:51.923Z,13.06
2019-03-27T15:02:20.416Z,13.02
2019-03-27T15:04:48.852Z,12.96
2019-03-27T15:07:17.350Z,12.91
2019-03-27T15:09:45.744Z,12.69
2019-03-27T15:12:14.229Z,12.69
2019-03-27T15:14:42.619Z,12.63
2019-03-27T15:17:11.036Z,12.17
2019-03-27T15:19:39.534Z,12.17
2019-03-27T15:22:21.463Z,12.25
2019-03-27T15:24:38.604Z,12.37
2019-03-27T15:27:06.950Z,12.18
2019-03-27T15:29:35.280Z,12.27
2019-03-27T15:32:03.860Z,12.38
2019-03-27T15:34:32.334Z,12.32
2019-03-27T15:37:00.837Z,12.39
2019-03-27T15:39:29.147Z,12.36
2019-03-27T15:41:58.366Z,12.29
2019-03-27T15:44:27.472Z,12.29
2019-03-27T15:46:55.869Z,12.33
2019-03-27T15:49:24.298Z,12.16
2019-03-27T15:51:53.093Z,11.95
2019-03-27T15:54:23.462Z,11.93
2019-03-27T15:56:51.940Z,11.76
2019-03-27T15:59:20.520Z,11.76
2019-03-27T16:01:49.121Z,11.51
2019-03-27T16:04:17.652Z,11.64
2019-03-27T16:06:46.127Z,11.64
2019-03-27T16:09:15.817Z,11.66
2019-03-27T16:11:44.386Z,11.34
2019-03-27T16:14:13.552Z,11.38
2019-03-27T16:16:42.224Z,11.38
2019-03-27T16:19:11.698Z,11.38
2019-03-27T16:21:44.472Z,11.39
2019-03-27T16:24:12.910Z,11.13
2019-03-27T16:26:41.520Z,11.13
2019-03-27T16:29:10.546Z,11.13
2019-03-27T16:31:39.538Z,11.14
2019-03-27T16:34:08.095Z,11.07
2019-03-27T16:36:36.565Z,11.04
2019-03-27T16:39:05.862Z,10.78
2019-03-27T16:41:34.404Z,10.79
2019-03-27T16:44:03.004Z,10.82
2019-03-27T16:46:31.663Z,10.76
2019-03-27T16:49:00.154Z,10.57
2019-03-27T16:51:29.249Z,10.65
2019-03-27T16:53:57.629Z,10.72
2019-03-27T16:56:26.368Z,10.67
2019-03-27T16:58:55.207Z,10.63
2019-03-27T17:01:24.418Z,10.57
2019-03-27T17:03:53.007Z,10.42
2019-03-27T17:06:21.734Z,10.18
2019-03-27T17:08:50.386Z,10.43
2019-03-27T17:11:18.696Z,10.80
2019-03-27T17:13:47.170Z,11.03
2019-03-27T17:16:15.694Z,11.21
2019-03-27T17:18:44.216Z,11.45
2019-03-27T17:21:12.569Z,11.77
2019-03-27T17:23:42.578Z,11.87
2019-03-27T17:26:11.099Z,11.64
2019-03-27T17:28:39.679Z,11.32
2019-03-27T17:31:08.093Z,11.11
2019-03-27T17:33:36.607Z,11.06
2019-03-27T17:36:05.847Z,10.87
2019-03-27T17:38:34.327Z,10.81
2019-03-27T17:41:02.871Z,10.54
2019-03-27T17:43:31.341Z,10.50
2019-03-27T17:46:00.834Z,10.44
2019-03-27T17:48:29.281Z,10.44
2019-03-27T17:50:58.225Z,10.43
2019-03-27T17:53:31.932Z,10.33
2019-03-27T17:55:56.980Z,10.27
2019-03-27T17:58:25.524Z,10.23
2019-03-27T18:00:57.146Z,10.25
2019-03-27T18:03:25.626Z,10.21
2019-03-27T18:05:54.168Z,10.14
2019-03-27T18:08:22.773Z,10.13
2019-03-27T18:10:51.304Z,10.05
2019-03-27T18:13:19.786Z,10.02
2019-03-27T18:15:48.285Z,10.02
2019-03-27T18:18:16.824Z,9.98
2019-03-27T18:20:45.227Z,9.90
2019-03-27T18:23:14.488Z,9.90
2019-03-27T18:25:42.936Z,9.86
2019-03-27T18:28:11.412Z,9.80
2019-03-27T18:30:40.598Z,9.82
2019-03-27T18:33:09.096Z,9.72
2019-03-27T18:35:37.523Z,9.69
2019-03-27T18:38:06.095Z,9.72
2019-03-27T18:40:34.514Z,9.72
2019-03-27T18:43:03.624Z,9.68
2019-03-27T18:45:31.937Z,9.64
2019-03-27T18:48:00.451Z,9.62
2019-03-27T18:50:28.911Z,9.60
2019-03-27T18:52:57.263Z,9.63
2019-03-27T18:55:27.130Z,9.58
2019-03-27T18:58:00.302Z,9.64
2019-03-27T19:00:27.833Z,9.59
2019-03-27T19:02:56.336Z,9.54
2019-03-27T19:05:24.933Z,9.50
2019-03-27T19:07:53.433Z,9.49
2019-03-27T19:10:22.312Z,9.50
2019-03-27T19:12:51.014Z,9.46
2019-03-27T19:15:21.279Z,9.49
2019-03-27T19:17:49.940Z,9.44
2019-03-27T19:20:18.455Z,9.38
2019-03-27T19:22:46.807Z,9.38
2019-03-27T19:25:15.307Z,9.39
2019-03-27T19:27:43.755Z,9.49
2019-03-27T19:30:12.855Z,9.51
2019-03-27T19:32:41.256Z,9.48
2019-03-27T19:35:09.900Z,9.45
2019-03-27T19:37:38.347Z,9.36
2019-03-27T19:40:07.408Z,9.37
2019-03-27T19:42:36.620Z,9.32
2019-03-27T19:45:06.266Z,9.29
2019-03-27T19:47:34.681Z,9.34
2019-03-27T19:50:03.540Z,9.23
2019-03-27T19:52:32.165Z,9.25
2019-03-27T19:55:00.804Z,9.24
2019-03-27T19:57:29.399Z,9.23
2019-03-27T19:59:57.908Z,9.23
2019-03-27T20:02:26.354Z,9.12
2019-03-27T20:04:56.870Z,9.14
2019-03-27T20:07:35.329Z,9.22
2019-03-27T20:09:55.871Z,9.09
2019-03-27T20:12:24.408Z,9.20
2019-03-27T20:14:52.792Z,9.18
2019-03-27T20:17:21.196Z,9.16
2019-03-27T20:19:49.752Z,9.16
2019-03-27T20:22:18.143Z,9.11
2019-03-27T20:24:47.321Z,9.16
2019-03-27T20:27:15.852Z,9.17
2019-03-27T20:29:46.620Z,9.15
2019-03-27T20:32:15.403Z,9.17
2019-03-27T20:34:43.860Z,9.19
2019-03-27T20:37:12.178Z,9.16
2019-03-27T20:39:42.688Z,9.11
2019-03-27T20:42:10.772Z,9.10
2019-03-27T20:44:39.229Z,9.06
2019-03-27T20:47:07.561Z,9.01
2019-03-27T20:49:35.902Z,9.03
2019-03-27T20:52:04.243Z,9.07
2019-03-27T20:54:32.624Z,8.97
2019-03-27T20:57:01.616Z,8.95
2019-03-27T20:59:30.113Z,9.01
2019-03-27T21:01:58.583Z,9.06
2019-03-27T21:04:26.986Z,9.00
2019-03-27T21:06:55.407Z,8.96
2019-03-27T21:09:26.263Z,9.05
2019-03-27T21:11:56.173Z,8.97
2019-03-27T21:14:24.608Z,8.98
2019-03-27T21:16:53.097Z,8.97
2019-03-27T21:19:21.537Z,9.02
2019-03-27T21:21:49.873Z,9.11
2019-03-27T21:24:18.295Z,9.10
2019-03-27T21:26:46.723Z,9.13
2019-03-27T21:29:16.227Z,9.15
2019-03-27T21:31:44.856Z,9.20
2019-03-27T21:34:13.427Z,9.16
2019-03-27T21:36:42.066Z,9.14
2019-03-27T21:39:10.546Z,9.21
2019-03-27T21:41:38.915Z,9.18
2019-03-27T21:44:07.442Z,9.10
2019-03-27T21:46:36.500Z,9.11
2019-03-27T21:49:04.931Z,9.11
2019-03-27T21:51:33.445Z,9.15
2019-03-27T21:54:02.487Z,9.17
2019-03-27T21:56:31.943Z,9.18
2019-03-27T21:59:02.533Z,9.18
2019-03-27T22:01:30.866Z,9.14
2019-03-27T22:03:59.391Z,9.07
2019-03-27T22:06:30.399Z,8.99
2019-03-27T22:08:59.516Z,9.08
2019-03-27T22:11:27.963Z,9.05
2019-03-27T22:13:56.393Z,9.08
2019-03-27T22:16:24.751Z,9.13
2019-03-27T22:18:53.233Z,9.09
2019-03-27T22:21:21.738Z,9.05
2019-03-27T22:23:50.092Z,9.03
2019-03-27T22:26:18.700Z,9.05
2019-03-27T22:28:47.163Z,9.09
2019-03-27T22:31:16.262Z,9.04
2019-03-27T22:33:44.664Z,9.02
2019-03-27T22:36:13.354Z,9.03
2019-03-27T22:38:41.794Z,9.03
2019-03-27T22:41:10.185Z,9.04
2019-03-27T22:43:38.573Z,9.05
2019-03-27T22:46:06.905Z,9.03
2019-03-27T22:48:35.305Z,9.05
2019-03-27T22:51:03.818Z,9.04
2019-03-27T22:53:32.221Z,8.95
2019-03-27T22:56:00.617Z,8.86
2019-03-27T22:58:29.240Z,8.91
2019-03-27T23:00:58.092Z,8.89
2019-03-27T23:03:26.724Z,8.81
2019-03-27T23:05:55.181Z,8.81
2019-03-27T23:08:23.730Z,8.86
2019-03-27T23:10:52.201Z,8.82
2019-03-27T23:13:20.832Z,8.87
2019-03-27T23:15:49.506Z,8.83
2019-03-27T23:18:18.109Z,8.87
2019-03-27T23:20:46.602Z,8.92
2019-03-27T23:23:15.137Z,8.90
2019-03-27T23:25:43.608Z,8.89
2019-03-27T23:28:12.122Z,8.95
2019-03-27T23:30:40.673Z,8.95
2019-03-27T23:33:09.202Z,8.97
2019-03-27T23:35:37.698Z,8.95
2019-03-27T23:38:06.360Z,8.97
2019-03-27T23:40:36.379Z,8.96
2019-03-27T23:43:04.773Z,8.89
2019-03-27T23:45:33.098Z,8.82
2019-03-27T23:48:01.504Z,8.86
2019-03-27T23:50:29.816Z,8.88
2019-03-27T23:52:58.258Z,8.85
2019-03-27T23:55:26.578Z,8.82
2019-03-27T23:57:55.174Z,8.77
